Time;durP1;ratioP1;P1;durP2;ratioP2;P2;SDS_P1;SDS_P2;PMS_P1;PMS_P2;Temp;Humidity;BMP_temperature;BMP_pressure;BME280_temperature;BME280_humidity;BME280_pressure;Samples;Min_cycle;Max_cycle;Signal;HPM_P1;HPM_P2
2022/04/10 00:02:14;;;;;;;;;;;;;;;;;;5067216;28;20034;-56
2022/04/10 00:04:39;;;;;;;;;;;;;;;;;;5067059;28;19912;-56
2022/04/10 00:07:04;;;;;;;;;;;;;;;;;;5067581;28;20069;-56
2022/04/10 00:09:29;;;;;;;;;;;;;;;;;;5066644;28;24067;-56
2022/04/10 00:11:54;;;;;;;;;;;;;;;;;;5067193;28;20035;-56
2022/04/10 00:14:20;;;;;;;;;;;;;;;;;;5066580;28;20574;-55
2022/04/10 00:16:45;;;;;;;;;;;;;;;;;;5066898;28;20306;-55
2022/04/10 00:19:10;;;;;;;;;;;;;;;;;;5067109;28;19915;-56
2022/04/10 00:21:35;;;;;;;;;;;;;;;;;;5067531;28;20218;-54
2022/04/10 00:24:00;;;;;;;;;;;;;;;;;;5067382;28;20062;-55
2022/04/10 00:26:25;;;;;;;;;;;;;;;;;;5066643;28;19908;-56
2022/04/10 00:28:51;;;;;;;;;;;;;;;;;;5061238;28;20111;-56
2022/04/10 00:31:16;;;;;;;;;;;;;;;;;;5047434;28;20507;-56
2022/04/10 00:33:42;;;;;;;;;;;;;;;;;;5046895;28;19909;-56
2022/04/10 00:36:07;;;;;;;;;;;;;;;;;;5047000;28;20265;-56
2022/04/10 00:38:32;;;;;;;;;;;;;;;;;;5066064;28;20256;-56
2022/04/10 00:40:58;;;;;;;;;;;;;;;;;;5067281;28;24177;-57
2022/04/10 00:43:30;;;;;;;;;;;;;;;;;;5066991;28;20842;-57
2022/04/10 00:45:57;;;;;;;;;;;;;;;;;;5066825;28;20024;-56
2022/04/10 00:48:23;;;;;;;;;;;;;;;;;;5066349;28;25113;-57
2022/04/10 00:53:33;;;;;;;;;;;;;;;;;;5044950;28;20769;-56
2022/04/10 00:55:58;;;;;;;;;;;;;;;;;;5046355;28;20600;-57
2022/04/10 00:58:24;;;;;;;;;;;;;;;;;;5064838;28;19978;-57
2022/04/10 01:00:49;;;;;;;;;;;;;;;;;;5066510;28;20525;-56
2022/04/10 01:03:14;;;;;;;;;;;;;;;;;;5065626;28;20220;-57
2022/04/10 01:05:39;;;;;;;;;;;;;;;;;;5066481;28;19908;-57
2022/04/10 01:08:04;;;;;;;;;;;;;;;;;;5065847;28;19995;-56
2022/04/10 01:10:29;;;;;;;;;;;;;;;;;;5066285;28;20152;-58
2022/04/10 01:12:54;;;;;;;;;;;;;;;;;;5065546;28;24108;-56
2022/04/10 01:15:19;;;;;;;;;;;;;;;;;;5055509;28;20102;-56
2022/04/10 01:17:44;;;;;;;;;;;;;;;;;;5058154;28;20746;-56
2022/04/10 01:20:10;;;;;;;;;;;;;;;;;;5066154;28;19918;-57
2022/04/10 01:22:35;;;;;;;;;;;;;;;;;;5064972;28;20300;-55
2022/04/10 01:25:00;;;;;;;;;;;;;;;;;;5065788;28;20253;-56
2022/04/10 01:27:25;;;;;;;;;;;;;;;;;;5065281;28;20233;-56
2022/04/10 01:29:50;;;;;;;;;;;;;;;;;;5065138;28;25062;-56
2022/04/10 01:32:15;;;;;;;;;;;;;;;;;;5064265;28;19951;-55
2022/04/10 01:34:41;;;;;;;;;;;;;;;;;;5064257;28;24153;-55
2022/04/10 01:37:06;;;;;;;;;;;;;;;;;;5064570;28;19912;-56
2022/04/10 01:39:31;;;;;;;;;;;;;;;;;;5065067;28;20389;-55
2022/04/10 01:41:57;;;;;;;;;;;;;;;;;;5064503;28;25119;-56
2022/04/10 01:44:22;;;;;;;;;;;;;;;;;;5064308;28;25140;-55
2022/04/10 01:46:47;;;;;;;;;;;;;;;;;;5065031;28;19916;-57
2022/04/10 01:49:12;;;;;;;;;;;;;;;;;;5064966;28;24087;-57
2022/04/10 01:51:37;;;;;;;;;;;;;;;;;;5064426;28;19912;-57
2022/04/10 01:54:02;;;;;;;;;;;;;;;;;;5062870;28;20051;-57
2022/04/10 01:56:28;;;;;;;;;;;;;;;;;;5064164;28;19923;-56
2022/04/10 01:58:53;;;;;;;;;;;;;;;;;;5063538;28;20279;-57
2022/04/10 02:01:18;;;;;;;;;;;;;;;;;;5065858;28;19908;-56
2022/04/10 02:03:43;;;;;;;;;;;;;;;;;;5064022;28;24069;-56
2022/04/10 02:06:09;;;;;;;;;;;;;;;;;;5064387;28;20229;-56
2022/04/10 02:08:35;;;;;;;;;;;;;;;;;;5064323;28;24069;-56
2022/04/10 02:11:00;;;;;;;;;;;;;;;;;;5064691;28;19912;-57
2022/04/10 02:13:25;;;;;;;;;;;;;;;;;;5064415;28;24099;-57
2022/04/10 02:15:51;;;;;;;;;;;;;;;;;;5064195;28;19978;-56
2022/04/10 02:18:16;;;;;;;;;;;;;;;;;;5063733;28;19912;-56
2022/04/10 02:20:41;;;;;;;;;;;;;;;;;;5064190;28;20255;-56
2022/04/10 02:23:06;;;;;;;;;;;;;;;;;;5064276;28;20313;-56
2022/04/10 02:25:31;;;;;;;;;;;;;;;;;;5063490;28;19912;-56
2022/04/10 02:27:56;;;;;;;;;;;;;;;;;;5063408;28;24054;-56
2022/04/10 02:30:22;;;;;;;;;;;;;;;;;;5064085;28;19909;-56
2022/04/10 02:32:47;;;;;;;;;;;;;;;;;;5064565;28;19912;-55
2022/04/10 02:35:12;;;;;;;;;;;;;;;;;;5063568;28;19920;-54
2022/04/10 02:37:37;;;;;;;;;;;;;;;;;;5064406;28;19912;-54
2022/04/10 02:40:03;;;;;;;;;;;;;;;;;;5063566;28;20432;-57
2022/04/10 02:42:29;;;;;;;;;;;;;;;;;;5063687;28;19915;-56
2022/04/10 02:44:54;;;;;;;;;;;;;;;;;;5063785;28;20041;-55
2022/04/10 02:47:19;;;;;;;;;;;;;;;;;;5063874;28;20314;-55
2022/04/10 02:49:44;;;;;;;;;;;;;;;;;;5063837;28;20595;-57
2022/04/10 02:52:09;;;;;;;;;;;;;;;;;;5064539;28;20229;-57
2022/04/10 02:54:34;;;;;;;;;;;;;;;;;;5063343;28;20246;-57
2022/04/10 02:56:59;;;;;;;;;;;;;;;;;;5063566;28;20121;-55
2022/04/10 02:59:25;;;;;;;;;;;;;;;;;;5063633;28;20041;-55
2022/04/10 03:01:50;;;;;;;;;;;;;;;;;;5063863;28;20730;-56
2022/04/10 03:04:15;;;;;;;;;;;;;;;;;;5063570;28;20087;-55
2022/04/10 03:06:40;;;;;;;;;;;;;;;;;;5063388;28;20245;-56
2022/04/10 03:09:05;;;;;;;;;;;;;;;;;;5063360;28;20051;-57
2022/04/10 03:11:30;;;;;;;;;;;;;;;;;;5062687;28;19912;-56
2022/04/10 03:13:55;;;;;;;;;;;;;;;;;;5063468;28;20615;-56
2022/04/10 03:16:21;;;;;;;;;;;;;;;;;;5060997;28;20166;-55
2022/04/10 03:18:46;;;;;;;;;;;;;;;;;;5062967;28;25057;-57
2022/04/10 03:21:11;;;;;;;;;;;;;;;;;;5063427;28;20057;-57
2022/04/10 03:23:36;;;;;;;;;;;;;;;;;;5062948;28;19912;-57
2022/04/10 03:26:01;;;;;;;;;;;;;;;;;;5061825;28;20211;-56
2022/04/10 03:28:26;;;;;;;;;;;;;;;;;;5062738;28;24079;-55
2022/04/10 03:30:51;;;;;;;;;;;;;;;;;;5063029;28;24079;-55
2022/04/10 03:33:16;;;;;;;;;;;;;;;;;;5063444;28;19966;-55
2022/04/10 03:35:42;;;;;;;;;;;;;;;;;;5063164;28;19920;-57
2022/04/10 03:38:07;;;;;;;;;;;;;;;;;;5063777;28;20321;-57
2022/04/10 03:40:32;;;;;;;;;;;;;;;;;;5063113;28;24091;-57
2022/04/10 03:42:57;;;;;;;;;;;;;;;;;;5062587;28;25141;-57
2022/04/10 03:45:22;;;;;;;;;;;;;;;;;;5062737;28;24085;-57
2022/04/10 03:47:47;;;;;;;;;;;;;;;;;;5062798;28;19923;-56
2022/04/10 03:50:12;;;;;;;;;;;;;;;;;;5063272;28;19920;-56
2022/04/10 03:52:37;;;;;;;;;;;;;;;;;;5062226;28;24171;-56
2022/04/10 03:55:03;;;;;;;;;;;;;;;;;;5056646;28;25071;-56
2022/04/10 03:57:28;;;;;;;;;;;;;;;;;;5059435;28;25120;-56
2022/04/10 03:59:53;;;;;;;;;;;;;;;;;;5062619;28;20245;-56
2022/04/10 04:02:18;;;;;;;;;;;;;;;;;;5062696;28;24075;-55
2022/04/10 04:04:43;;;;;;;;;;;;;;;;;;5063816;28;19912;-55
2022/04/10 04:07:08;;;;;;;;;;;;;;;;;;5062527;28;19908;-57
2022/04/10 04:09:34;;;;;;;;;;;;;;;;;;5062085;28;20063;-56
2022/04/10 04:11:59;;;;;;;;;;;;;;;;;;5061932;28;19991;-56
2022/04/10 04:14:24;;;;;;;;;;;;;;;;;;5061724;28;20472;-56
2022/04/10 04:16:49;;;;;;;;;;;;;;;;;;5060604;28;19959;-55
2022/04/10 04:19:14;;;;;;;;;;;;;;;;;;5061679;28;24076;-55
2022/04/10 04:21:39;;;;;;;;;;;;;;;;;;5058044;28;19974;-55
2022/04/10 04:24:04;;;;;;;;;;;;;;;;;;5053809;28;24094;-57
2022/04/10 04:26:29;;;;;;;;;;;;;;;;;;5056874;28;19962;-57
2022/04/10 04:28:55;;;;;;;;;;;;;;;;;;5055477;28;24090;-56
2022/04/10 04:31:20;;;;;;;;;;;;;;;;;;5055433;28;19912;-57
2022/04/10 04:33:45;;;;;;;;;;;;;;;;;;5056468;28;19909;-57
2022/04/10 04:36:10;;;;;;;;;;;;;;;;;;5054563;28;24073;-55
2022/04/10 04:38:35;;;;;;;;;;;;;;;;;;5056869;28;24166;-56
2022/04/10 04:41:00;;;;;;;;;;;;;;;;;;5055059;28;19908;-56
2022/04/10 04:43:25;;;;;;;;;;;;;;;;;;5054294;28;24069;-55
2022/04/10 04:45:50;;;;;;;;;;;;;;;;;;5055539;28;19908;-54
2022/04/10 04:48:16;;;;;;;;;;;;;;;;;;5073300;28;24079;-54
2022/04/10 04:50:41;;;;;;;;;;;;;;;;;;5057552;28;19912;-55
2022/04/10 04:53:06;;;;;;;;;;;;;;;;;;5054401;28;24073;-56
2022/04/10 04:55:31;;;;;;;;;;;;;;;;;;5054493;28;20283;-55
2022/04/10 04:57:56;;;;;;;;;;;;;;;;;;5071677;28;20174;-55
2022/04/10 05:00:21;;;;;;;;;;;;;;;;;;5054335;28;19970;-55
2022/04/10 05:02:47;;;;;;;;;;;;;;;;;;5055128;28;19970;-55
2022/04/10 05:05:13;;;;;;;;;;;;;;;;;;5053804;28;24084;-55
2022/04/10 05:07:38;;;;;;;;;;;;;;;;;;5054527;28;19916;-55
2022/04/10 05:10:03;;;;;;;;;;;;;;;;;;5053788;28;24076;-57
2022/04/10 05:12:30;;;;;;;;;;;;;;;;;;5055136;28;19944;-56
2022/04/10 05:14:55;;;;;;;;;;;;;;;;;;5053755;28;25134;-56
2022/04/10 05:17:20;;;;;;;;;;;;;;;;;;5049326;28;24108;-55
2022/04/10 05:19:45;;;;;;;;;;;;;;;;;;5046980;28;19966;-56
2022/04/10 05:22:10;;;;;;;;;;;;;;;;;;5046331;28;19970;-56
2022/04/10 05:24:36;;;;;;;;;;;;;;;;;;5045294;28;19920;-56
2022/04/10 05:27:01;;;;;;;;;;;;;;;;;;5044006;28;20243;-56
2022/04/10 05:29:26;;;;;;;;;;;;;;;;;;5045259;28;25119;-55
2022/04/10 05:31:51;;;;;;;;;;;;;;;;;;5045838;28;19904;-57
2022/04/10 05:34:16;;;;;;;;;;;;;;;;;;5060643;28;20499;-55
2022/04/10 05:36:41;;;;;;;;;;;;;;;;;;5047054;28;19916;-56
2022/04/10 05:39:06;;;;;;;;;;;;;;;;;;5045750;28;20388;-56
2022/04/10 05:41:32;;;;;;;;;;;;;;;;;;5048683;28;20366;-56
2022/04/10 05:48:57;;;;;;;;;;;;;;;;;;5780833;22;25107;-70
2022/04/10 05:51:22;;;;;;;;;;;;;;;;;;5056902;28;19912;-70
2022/04/10 05:53:47;;;;;;;;;;;;;;;;;;5098918;22;19968;-72
2022/04/10 05:56:12;;;;;;;;;;;;;;;;;;5048995;28;20051;-72
2022/04/10 05:58:37;;;;;;;;;;;;;;;;;;5038279;28;21703;-72
2022/04/10 06:01:02;;;;;;;;;;;;;;;;;;5061971;28;20427;-72
2022/04/10 06:03:27;;;;;;;;;;;;;;;;;;5061370;28;24063;-71
2022/04/10 06:05:53;;;;;;;;;;;;;;;;;;5060751;28;19966;-71
2022/04/10 06:10:48;;;;;;;;;;;;;;;;;;5041137;28;19950;-76
2022/04/10 06:13:13;;;;;;;;;;;;;;;;;;5042345;28;19909;-77
2022/04/10 06:15:38;;;;;;;;;;;;;;;;;;5046870;28;24071;-76
2022/04/10 06:18:04;;;;;;;;;;;;;;;;;;5046316;28;25183;-76
2022/04/10 06:20:29;;;;;;;;;;;;;;;;;;5042284;28;19912;-74
2022/04/10 06:22:54;;;;;;;;;;;;;;;;;;5072398;23;25073;-73
2022/04/10 06:25:19;;;;;;;;;;;;;;;;;;5052936;28;19931;-74
2022/04/10 06:27:44;;;;;;;;;;;;;;;;;;5065362;28;20293;-75
2022/04/10 06:30:09;;;;;;;;;;;;;;;;;;5064767;28;19913;-73
2022/04/10 06:32:34;;;;;;;;;;;;;;;;;;5064085;28;19913;-74
2022/04/10 06:34:59;;;;;;;;;;;;;;;;;;5063492;28;19916;-73
2022/04/10 06:37:25;;;;;;;;;;;;;;;;;;5064247;28;24082;-75
2022/04/10 06:39:50;;;;;;;;;;;;;;;;;;5064475;28;20268;-75
2022/04/10 06:42:15;;;;;;;;;;;;;;;;;;5064572;28;25060;-73
2022/04/10 06:44:40;;;;;;;;;;;;;;;;;;5063407;28;19918;-74
2022/04/10 06:47:05;;;;;;;;;;;;;;;;;;5049893;28;20384;-74
2022/04/10 06:49:30;;;;;;;;;;;;;;;;;;5055151;28;19983;-73
2022/04/10 06:51:55;;;;;;;;;;;;;;;;;;5052431;28;20028;-73
2022/04/10 06:54:20;;;;;;;;;;;;;;;;;;5063409;28;24072;-73
2022/04/10 06:56:46;;;;;;;;;;;;;;;;;;5065154;28;19956;-74
2022/04/10 06:59:11;;;;;;;;;;;;;;;;;;5051737;28;24053;-74
2022/04/10 07:01:36;;;;;;;;;;;;;;;;;;5060466;28;19912;-73
2022/04/10 07:04:01;;;;;;;;;;;;;;;;;;5064494;28;19994;-73
2022/04/10 07:06:26;;;;;;;;;;;;;;;;;;5064560;28;25149;-73
2022/04/10 07:08:51;;;;;;;;;;;;;;;;;;5065338;28;19908;-72
2022/04/10 07:11:16;;;;;;;;;;;;;;;;;;5065490;28;19919;-73
2022/04/10 07:13:41;;;;;;;;;;;;;;;;;;5064362;28;24145;-73
2022/04/10 07:16:08;;;;;;;;;;;;;;;;;;5065557;28;19926;-73
2022/04/10 07:18:33;;;;;;;;;;;;;;;;;;5065241;28;24076;-77
2022/04/10 07:20:58;;;;;;;;;;;;;;;;;;5057806;28;24062;-73
2022/04/10 07:23:42;;;;;;;;;;;;;;;;;;5062994;28;24159;-73
2022/04/10 07:26:07;;;;;;;;;;;;;;;;;;5063442;28;24087;-74
2022/04/10 07:28:33;;;;;;;;;;;;;;;;;;5063830;28;19934;-75
2022/04/10 07:30:58;;;;;;;;;;;;;;;;;;5064234;28;24084;-74
2022/04/10 07:33:23;;;;;;;;;;;;;;;;;;5064490;28;19966;-74
2022/04/10 07:35:48;;;;;;;;;;;;;;;;;;5063183;28;19977;-75
2022/04/10 07:38:13;;;;;;;;;;;;;;;;;;5063128;28;20010;-75
2022/04/10 07:40:38;;;;;;;;;;;;;;;;;;5065960;28;19928;-73
2022/04/10 07:43:03;;;;;;;;;;;;;;;;;;5064590;28;24077;-74
2022/04/10 07:48:26;;;;;;;;;;;;;;;;;;5008752;28;19908;-74
2022/04/10 07:50:51;;;;;;;;;;;;;;;;;;5063640;28;25065;-74
2022/04/10 07:53:16;;;;;;;;;;;;;;;;;;5063528;28;25174;-74
2022/04/10 07:55:41;;;;;;;;;;;;;;;;;;5060560;28;19928;-73
2022/04/10 07:58:06;;;;;;;;;;;;;;;;;;5062112;28;24070;-74
2022/04/10 08:00:35;;;;;;;;;;;;;;;;;;5066542;28;24097;-73
2022/04/10 08:03:00;;;;;;;;;;;;;;;;;;5062983;28;19915;-74
2022/04/10 08:05:25;;;;;;;;;;;;;;;;;;5066800;28;19930;-75
2022/04/10 08:07:50;;;;;;;;;;;;;;;;;;5064623;28;24072;-75
2022/04/10 08:10:15;;;;;;;;;;;;;;;;;;5063966;28;20491;-74
2022/04/10 08:12:40;;;;;;;;;;;;;;;;;;5062837;28;19912;-74
2022/04/10 08:15:06;;;;;;;;;;;;;;;;;;5067612;28;19920;-75
2022/04/10 08:17:31;;;;;;;;;;;;;;;;;;5063284;28;19919;-73
2022/04/10 08:19:56;;;;;;;;;;;;;;;;;;5067277;28;19912;-72
2022/04/10 08:22:21;;;;;;;;;;;;;;;;;;5067216;28;25120;-73
2022/04/10 08:24:46;;;;;;;;;;;;;;;;;;5068645;28;20184;-74
2022/04/10 08:27:11;;;;;;;;;;;;;;;;;;5069090;28;19912;-73
2022/04/10 08:29:37;;;;;;;;;;;;;;;;;;5068613;28;19912;-73
2022/04/10 08:32:02;;;;;;;;;;;;;;;;;;5065502;28;19970;-73
2022/04/10 08:34:27;;;;;;;;;;;;;;;;;;5065141;28;24049;-73
2022/04/10 08:36:52;;;;;;;;;;;;;;;;;;5065905;28;24068;-72
2022/04/10 08:39:17;;;;;;;;;;;;;;;;;;5062775;28;19912;-72
2022/04/10 08:41:42;;;;;;;;;;;;;;;;;;5064071;28;20502;-72
2022/04/10 08:44:08;;;;;;;;;;;;;;;;;;5062467;28;19916;-73
2022/04/10 08:46:36;;;;;;;;;;;;;;;;;;5065739;28;19912;-72
2022/04/10 08:49:01;;;;;;;;;;;;;;;;;;5063671;28;24119;-74
2022/04/10 08:51:26;;;;;;;;;;;;;;;;;;5061565;28;20374;-74
2022/04/10 08:53:51;;;;;;;;;;;;;;;;;;5064039;28;19919;-72
2022/04/10 08:56:16;;;;;;;;;;;;;;;;;;5052512;28;25171;-71
2022/04/10 08:58:42;;;;;;;;;;;;;;;;;;5049646;28;20403;-73
2022/04/10 09:01:07;;;;;;;;;;;;;;;;;;5049647;28;19912;-74
2022/04/10 09:03:32;;;;;;;;;;;;;;;;;;5052694;28;24068;-73
2022/04/10 09:05:57;;;;;;;;;;;;;;;;;;5051161;28;19918;-73
2022/04/10 09:08:22;;;;;;;;;;;;;;;;;;5034712;28;20375;-74
2022/04/10 09:10:47;;;;;;;;;;;;;;;;;;5055306;28;19912;-73
2022/04/10 09:13:12;;;;;;;;;;;;;;;;;;5056661;28;19912;-75
2022/04/10 09:15:37;;;;;;;;;;;;;;;;;;5053729;28;24069;-74
2022/04/10 09:18:02;;;;;;;;;;;;;;;;;;5054149;28;19912;-75
2022/04/10 09:20:28;;;;;;;;;;;;;;;;;;5065257;28;19922;-74
2022/04/10 09:22:53;;;;;;;;;;;;;;;;;;5060084;28;19924;-74
2022/04/10 09:25:18;;;;;;;;;;;;;;;;;;5062131;28;19916;-75
2022/04/10 09:27:43;;;;;;;;;;;;;;;;;;5061334;28;24103;-75
2022/04/10 09:30:08;;;;;;;;;;;;;;;;;;5052857;28;24101;-74
2022/04/10 09:32:33;;;;;;;;;;;;;;;;;;5064268;28;25150;-74
2022/04/10 09:34:58;;;;;;;;;;;;;;;;;;5064321;28;20429;-70
2022/04/10 09:37:24;;;;;;;;;;;;;;;;;;5065329;28;24147;-72
2022/04/10 09:39:49;;;;;;;;;;;;;;;;;;5058735;28;24070;-71
2022/04/10 09:42:14;;;;;;;;;;;;;;;;;;5055536;28;24125;-73
2022/04/10 09:44:39;;;;;;;;;;;;;;;;;;5061149;28;19927;-73
2022/04/10 09:47:08;;;;;;;;;;;;;;;;;;5064008;28;19916;-72
2022/04/10 09:49:33;;;;;;;;;;;;;;;;;;5065276;28;19908;-72
2022/04/10 09:51:58;;;;;;;;;;;;;;;;;;5065303;28;20306;-72
2022/04/10 09:54:23;;;;;;;;;;;;;;;;;;5064996;28;25056;-72
2022/04/10 09:56:48;;;;;;;;;;;;;;;;;;5065374;28;25125;-71
2022/04/10 09:59:13;;;;;;;;;;;;;;;;;;5065100;28;25149;-72
2022/04/10 10:01:39;;;;;;;;;;;;;;;;;;5065695;28;19943;-73
2022/04/10 10:04:04;;;;;;;;;;;;;;;;;;5056927;28;20382;-74
2022/04/10 10:06:29;;;;;;;;;;;;;;;;;;5069528;28;19919;-74
2022/04/10 10:08:54;;;;;;;;;;;;;;;;;;5054831;28;19915;-73
2022/04/10 10:11:20;;;;;;;1608.30;999.90;;;;;;;;;;5061320;28;24065;-74
2022/04/10 10:13:45;;;;;;;;;;;;;;;;;;5052338;28;19953;-75
2022/04/10 10:16:10;;;;;;;;;;;;;;;;;;5067144;28;20506;-75
2022/04/10 10:18:35;;;;;;;;;;;;;;;;;;5067426;28;20387;-74
2022/04/10 10:21:02;;;;;;;;;;;;;;;;;;5066425;28;19981;-73
2022/04/10 11:22:48;;;;;;;;;;;;;;;;;;5040540;28;19932;-74
2022/04/10 11:25:13;;;;;;;;;;;;;;;;;;5063497;28;19934;-74
2022/04/10 11:27:38;;;;;;;;;;;;;;;;;;5063468;28;24116;-74
2022/04/10 11:30:03;;;;;;;;;;;;;;;;;;5063648;28;19947;-73
2022/04/10 11:32:28;;;;;;;;;;;;;;;;;;5066360;28;24075;-74
2022/04/10 11:34:53;;;;;;;;;;;;;;;;;;5066940;28;19909;-73
2022/04/10 11:37:21;;;;;;;;;;;;;;;;;;5067924;28;19935;-75
2022/04/10 11:39:47;;;;;;;;;;;;;;;;;;5067953;28;24071;-75
2022/04/10 11:42:12;;;;;;;;;;;;;;;;;;5068984;28;20592;-75
2022/04/10 11:44:38;;;;;;;;;;;;;;;;;;5067045;28;20414;-73
2022/04/10 11:47:05;;;;;;;;;;;;;;;;;;5065825;28;20292;-74
2022/04/10 11:49:30;;;;;;;;;;;;;;;;;;5063382;28;19947;-74
2022/04/10 11:51:55;;;;;;;;;;;;;;;;;;5064208;28;24107;-74
2022/04/10 11:54:20;;;;;;;;;;;;;;;;;;5059040;28;19962;-73
2022/04/10 11:56:45;;;;;;;;;;;;;;;;;;5048557;28;19924;-73
2022/04/10 11:59:10;;;;;;;;;;;;;;;;;;5066614;28;20011;-74
2022/04/10 12:01:37;;;;;;;;;;;;;;;;;;5063905;28;19908;-74
2022/04/10 12:04:02;;;;;;;;;;;;;;;;;;5060782;28;19944;-74
2022/04/10 12:06:27;;;;;;;;;;;;;;;;;;5063924;28;19912;-73
2022/04/10 12:08:55;;;;;;;;;;;;;;;;;;5066497;28;19947;-73
2022/04/10 12:11:20;;;;;;;;;;;;;;;;;;5052960;28;19923;-73
2022/04/10 12:13:45;;;;;;;;;;;;;;;;;;5063971;28;19909;-74
2022/04/10 12:16:11;;;;;;;;;;;;;;;;;;5066768;28;20703;-75
2022/04/10 12:18:36;;;;;;;;;;;;;;;;;;5057100;28;19917;-73
2022/04/10 12:21:01;;;;;;;;;;;;;;;;;;5065529;28;20236;-73
2022/04/10 12:23:26;;;;;;;;;;;;;;;;;;5048831;28;19925;-73
2022/04/10 12:25:51;;;;;;;;;;;;;;;;;;5070042;28;24149;-72
2022/04/10 12:28:17;;;;;;;;;;;;;;;;;;5071478;28;20405;-72
2022/04/10 12:30:42;;;;;;;;;;;;;;;;;;5068218;28;24113;-72
2022/04/10 12:33:07;;;;;;;;;;;;;;;;;;5068576;28;20755;-71
2022/04/10 12:35:32;;;;;;;;;;;;;;;;;;5064073;28;19920;-71
2022/04/10 12:37:57;;;;;;;;;;;;;;;;;;5051107;28;19955;-71
2022/04/10 12:40:22;;;;;;;;;;;;;;;;;;5067629;28;24070;-72
2022/04/10 12:42:47;;;;;;;;;;;;;;;;;;5066316;28;24077;-72
2022/04/10 12:45:13;;;;;;;;;;;;;;;;;;5066758;28;19946;-73
2022/04/10 12:47:38;;;;;;;;;;;;;;;;;;5067510;28;19919;-72
2022/04/10 12:50:03;;;;;;;;;;;;;;;;;;5068603;28;25065;-73
2022/04/10 12:52:28;;;;;;;;;;;;;;;;;;5067609;28;19912;-73
2022/04/10 12:54:53;;;;;;;;;;;;;;;;;;5065562;28;24120;-73
2022/04/10 12:57:18;;;;;;;;;;;;;;;;;;5047815;28;19959;-72
2022/04/10 12:59:48;;;;;;;;;;;;;;;;;;5065782;28;19909;-73
2022/04/10 13:02:13;;;;;;;;;;;;;;;;;;5068685;28;19909;-73
2022/04/10 13:04:38;;;;;;;;;;;;;;;;;;5065673;28;19908;-74
2022/04/10 13:07:04;;;;;;;;;;;;;;;;;;5065727;28;20367;-74
2022/04/10 13:09:29;;;;;;;;;;;;;;;;;;5065565;28;19908;-73
2022/04/10 13:11:55;;;;;;;;;;;;;;;;;;5066224;28;25059;-74
2022/04/10 13:14:20;;;;;;;;;;;;;;;;;;5065440;28;19914;-74
2022/04/10 13:16:49;;;;;;;;;;;;;;;;;;5065901;28;20081;-75
2022/04/10 13:19:14;;;;;;;;;;;;;;;;;;5065196;28;20452;-75
2022/04/10 13:21:40;;;;;;;;;;;;;;;;;;5065686;28;19912;-73
2022/04/10 13:24:05;;;;;;;;;;;;;;;;;;5064668;28;24067;-74
2022/04/10 13:26:30;;;;;;;;;;;;;;;;;;5057386;28;24069;-75
2022/04/10 13:28:55;;;;;;;;;;;;;;;;;;5060347;28;19915;-74
2022/04/10 13:31:20;;;;;;;;;;;;;;;;;;5047008;28;20463;-74
2022/04/10 13:33:45;;;;;;;;;;;;;;;;;;5064398;28;20010;-74
2022/04/10 13:36:11;;;;;;;;;;;;;;;;;;5064471;28;25062;-75
2022/04/10 13:38:36;;;;;;;;;;;;;;;;;;5064709;28;24074;-75
2022/04/10 13:41:01;;;;;;;;;;;;;;;;;;5065402;28;19973;-74
2022/04/10 13:43:26;;;;;;;;;;;;;;;;;;5064839;28;19999;-73
2022/04/10 13:45:51;;;;;;;;;;;;;;;;;;5065846;28;19967;-73
2022/04/10 13:48:16;;;;;;;;;;;;;;;;;;5073049;28;19908;-74
2022/04/10 13:50:41;;;;;;;;;;;;;;;;;;5071750;28;19919;-81
2022/04/10 13:53:07;;;;;;;;;;;;;;;;;;5065448;28;19912;-72
2022/04/10 13:55:32;;;;;;;;;;;;;;;;;;5064046;28;19924;-73
2022/04/10 13:57:57;;;;;;;;;;;;;;;;;;5063734;28;19912;-73
2022/04/10 14:00:22;;;;;;;;;;;;;;;;;;5064244;28;20391;-73
2022/04/10 14:02:47;;;;;;;;;;;;;;;;;;5064975;28;25159;-73
2022/04/10 14:05:12;;;;;;;;;;;;;;;;;;5064429;28;19912;-73
2022/04/10 14:07:37;;;;;;;;;;;;;;;;;;5065278;28;19997;-73
2022/04/10 14:10:02;;;;;;;;;;;;;;;;;;5064987;28;20062;-73
2022/04/10 14:12:28;;;;;;;;;;;;;;;;;;5064838;28;19912;-74
2022/04/10 14:14:53;;;;;;;;;;;;;;;;;;5065039;28;19916;-74
2022/04/10 14:17:18;;;;;;;;;;;;;;;;;;5064815;28;24084;-73
2022/04/10 14:19:44;;;;;;;;;;;;;;;;;;5064286;28;24373;-73
2022/04/10 14:22:09;;;;;;;;;;;;;;;;;;5064382;28;24076;-72
2022/04/10 14:24:35;;;;;;;;;;;;;;;;;;5064917;28;19912;-73
2022/04/10 14:27:00;;;;;;;;;;;;;;;;;;5065132;28;20003;-73
2022/04/10 14:29:25;;;;;;;;;;;;;;;;;;5064457;28;24110;-73
2022/04/10 14:31:51;;;;;;;;;;;;;;;;;;5064650;28;19908;-73
2022/04/10 14:34:17;;;;;;;;;;;;;;;;;;5064222;28;25071;-73
2022/04/10 14:36:42;;;;;;;;;;;;;;;;;;5063827;28;25090;-73
2022/04/10 14:39:07;;;;;;;;;;;;;;;;;;5064565;28;25142;-72
2022/04/10 14:41:33;;;;;;;;;;;;;;;;;;5064305;28;24173;-73
2022/04/10 14:43:58;;;;;;;;;;;;;;;;;;5064124;28;20105;-73
2022/04/10 14:46:23;;;;;;;;;;;;;;;;;;5064553;28;24062;-73
2022/04/10 14:48:48;;;;;;;;;;;;;;;;;;5064720;28;24060;-73
2022/04/10 14:51:13;;;;;;;;;;;;;;;;;;5064613;28;25106;-73
2022/04/10 14:53:38;;;;;;;;;;;;;;;;;;5064252;28;19936;-73
2022/04/10 14:56:04;;;;;;;;;;;;;;;;;;5064231;28;20010;-74
2022/04/10 14:58:29;;;;;;;;;;;;;;;;;;5064398;28;24116;-74
2022/04/10 15:00:54;;;;;;;;;;;;;;;;;;5064761;28;19995;-74
2022/04/10 15:03:21;;;;;;;;;;;;;;;;;;5064105;28;19962;-74
2022/04/10 15:05:46;;;;;;;;;;;;;;;;;;5046070;28;24070;-75
2022/04/10 15:08:12;;;;;;;;;;;;;;;;;;5064857;28;19908;-74
2022/04/10 15:10:37;;;;;;;;;;;;;;;;;;5064112;28;19999;-74
2022/04/10 15:13:02;;;;;;;;;;;;;;;;;;5063335;28;24142;-74
2022/04/10 15:15:28;;;;;;;;;;;;;;;;;;5062638;28;25064;-73
2022/04/10 15:17:54;;;;;;;;;;;;;;;;;;5075120;28;25070;-74
2022/04/10 15:20:19;;;;;;;;;;;;;;;;;;5062894;28;25066;-74
2022/04/10 15:22:45;;;;;;;;;;;;;;;;;;5062321;28;20347;-74
2022/04/10 15:25:10;;;;;;;;;;;;;;;;;;5068056;28;24088;-74
2022/04/10 15:27:35;;;;;;;;;;;;;;;;;;5066095;28;25161;-74
2022/04/10 15:30:00;;;;;;;;;;;;;;;;;;5065494;28;19981;-74
2022/04/10 15:32:26;;;;;;;;;;;;;;;;;;5065885;28;19908;-74
2022/04/10 15:34:51;;;;;;;;;;;;;;;;;;5077013;28;19947;-71
2022/04/10 15:37:16;;;;;;;;;;;;;;;;;;5074464;28;25067;-72
2022/04/10 15:39:41;;;;;;;;;;;;;;;;;;5076659;28;19922;-74
2022/04/10 15:42:06;;;;;;;;;;;;;;;;;;5081815;28;25091;-74
2022/04/10 15:44:32;;;;;;;;;;;;;;;;;;5063044;28;19956;-76
2022/04/10 15:46:57;;;;;;;;;;;;;;;;;;5063354;28;24137;-74
2022/04/10 15:49:22;;;;;;;;;;;;;;;;;;5063110;28;19919;-74
2022/04/10 15:51:48;;;;;;;;;;;;;;;;;;5066742;28;24098;-73
2022/04/10 15:54:13;;;;;;;;;;;;;;;;;;5084447;28;19987;-75
2022/04/10 15:56:38;;;;;;;;;;;;;;;;;;5063910;28;19951;-74
2022/04/10 15:59:03;;;;;;;;;;;;;;;;;;5062760;28;19915;-76
2022/04/10 16:01:28;;;;;;;;;;;;;;;;;;5078739;28;25153;-73
2022/04/10 16:03:54;;;;;;;;;;;;;;;;;;5067779;28;25064;-72
2022/04/10 16:06:19;;;;;;;;;;;;;;;;;;5073961;28;25076;-73
2022/04/10 16:08:44;;;;;;;;;;;;;;;;;;5076303;28;20371;-74
2022/04/10 16:11:09;;;;;;;;;;;;;;;;;;5067242;28;19937;-74
2022/04/10 16:13:34;;;;;;;;;;;;;;;;;;5079726;28;20124;-73
2022/04/10 16:15:59;;;;;;;;;;;;;;;;;;5063236;28;19916;-74
2022/04/10 16:18:24;;;;;;;;;;;;;;;;;;5064079;28;19916;-74
2022/04/10 16:20:50;;;;;;;;;;;;;;;;;;5067934;28;24069;-74
2022/04/10 16:23:15;;;;;;;;;;;;;;;;;;5057655;28;25060;-73
2022/04/10 16:25:40;;;;;;;;;;;;;;;;;;5046691;28;20347;-73
2022/04/10 16:30:49;;;;;;;;;;;;;;;;;;5040108;28;24109;-73
2022/04/10 16:33:14;;;;;;;;;;;;;;;;;;5045779;28;25170;-74
2022/04/10 16:35:42;;;;;;;;;;;;;;;;;;5046278;28;19913;-73
2022/04/10 16:38:08;;;;;;;;;;;;;;;;;;5028925;28;19924;-72
2022/04/10 16:40:34;;;;;;;;;;;;;;;;;;5046648;28;24077;-72
2022/04/10 16:42:59;;;;;;;;;;;;;;;;;;5046398;28;24086;-73
2022/04/10 16:45:24;;;;;;;;;;;;;;;;;;5028484;28;19919;-72
2022/04/10 16:47:50;;;;;;;;;;;;;;;;;;5028633;28;24079;-72
2022/04/10 16:50:15;;;;;;;;;;;;;;;;;;5046301;28;25153;-72
2022/04/10 16:52:41;;;;;;;;;;;;;;;;;;5047044;28;19996;-72
2022/04/10 16:55:06;;;;;;;;;;;;;;;;;;5046483;28;19970;-72
2022/04/10 16:57:31;;;;;;;;;;;;;;;;;;5046496;28;19909;-74
2022/04/10 16:59:56;;;;;;;;;;;;;;;;;;5045873;28;19913;-74
2022/04/10 17:02:21;;;;;;;;;;;;;;;;;;5047389;28;19908;-74
2022/04/10 17:04:46;;;;;;;;;;;;;;;;;;5045909;28;25066;-73
2022/04/10 17:07:12;;;;;;;;;;;;;;;;;;5046180;28;25121;-73
2022/04/10 17:09:37;;;;;;;;;;;;;;;;;;5034008;28;19944;-73
2022/04/10 17:12:03;;;;;;;;;;;;;;;;;;5045715;28;24065;-74
2022/04/10 17:14:28;;;;;;;;;;;;;;;;;;5044242;28;25089;-73
2022/04/10 17:16:53;;;;;;;;;;;;;;;;;;5045454;28;19921;-73
2022/04/10 17:19:18;;;;;;;;;;;;;;;;;;5048253;28;20004;-75
2022/04/10 17:21:43;;;;;;;;;;;;;;;;;;5050166;28;19933;-73
2022/04/10 17:24:09;;;;;;;;;;;;;;;;;;5064254;28;24084;-74
2022/04/10 17:26:34;;;;;;;;;;;;;;;;;;5068673;28;19920;-75
2022/04/10 17:29:00;;;;;;;;;;;;;;;;;;5067607;28;19912;-73
2022/04/10 17:31:25;;;;;;;;;;;;;;;;;;5067233;28;19916;-75
2022/04/10 17:33:50;;;;;;;;;;;;;;;;;;5061420;28;19908;-73
2022/04/10 17:36:15;;;;;;;;;;;;;;;;;;5058104;28;25078;-75
2022/04/10 17:38:40;;;;;;;;;;;;;;;;;;5055672;28;25181;-74
2022/04/10 17:41:05;;;;;;;;;;;;;;;;;;5046862;28;24110;-74
2022/04/10 17:43:31;;;;;;;;;;;;;;;;;;5058117;28;20367;-74
2022/04/10 17:45:56;;;;;;;;;;;;;;;;;;5055736;28;20353;-74